sensor_id;sensor_type;location;lat;lon;timestamp;pressure;altitude;pressure_sealevel;temperature;humidity
75972;BME280;64651;47.540;19.088;2022-11-04T00:02:23;100322.19;;;10.98;83.09
75972;BME280;64651;47.540;19.088;2022-11-04T00:07:25;100320.84;;;10.96;83.24
75972;BME280;64651;47.540;19.088;2022-11-04T00:12:46;100321.09;;;10.94;83.20
75972;BME280;64651;47.540;19.088;2022-11-04T00:17:48;100306.81;;;10.87;83.58
75972;BME280;64651;47.540;19.088;2022-11-04T00:22:50;100302.69;;;10.90;83.63
75972;BME280;64651;47.540;19.088;2022-11-04T00:28:24;100301.31;;;10.87;83.69
75972;BME280;64651;47.540;19.088;2022-11-04T00:33:45;100287.53;;;10.92;83.62
75972;BME280;64651;47.540;19.088;2022-11-04T00:38:48;100273.28;;;10.85;83.84
75972;BME280;64651;47.540;19.088;2022-11-04T00:44:02;100269.72;;;10.85;84.01
75972;BME280;64651;47.540;19.088;2022-11-04T00:49:04;100272.69;;;10.88;83.98
75972;BME280;64651;47.540;19.088;2022-11-04T00:54:06;100257.56;;;10.91;84.00
75972;BME280;64651;47.540;19.088;2022-11-04T00:59:08;100247.06;;;10.93;84.06
75972;BME280;64651;47.540;19.088;2022-11-04T01:04:15;100248.44;;;10.95;84.04
75972;BME280;64651;47.540;19.088;2022-11-04T01:09:17;100232.47;;;10.97;84.10
75972;BME280;64651;47.540;19.088;2022-11-04T01:14:19;100231.91;;;10.95;84.32
75972;BME280;64651;47.540;19.088;2022-11-04T01:19:22;100245.62;;;11.01;84.35
75972;BME280;64651;47.540;19.088;2022-11-04T01:24:24;100226.91;;;11.03;84.37
75972;BME280;64651;47.540;19.088;2022-11-04T01:29:26;100217.28;;;11.00;84.47
75972;BME280;64651;47.540;19.088;2022-11-04T01:34:28;100226.31;;;11.06;84.53
75972;BME280;64651;47.540;19.088;2022-11-04T01:39:30;100211.50;;;11.02;84.57
75972;BME280;64651;47.540;19.088;2022-11-04T01:44:45;100207.88;;;11.06;84.62
75972;BME280;64651;47.540;19.088;2022-11-04T01:49:55;100192.72;;;11.09;84.71
75972;BME280;64651;47.540;19.088;2022-11-04T01:55:04;100194.13;;;11.06;84.76
75972;BME280;64651;47.540;19.088;2022-11-04T02:00:08;100153.59;;;11.12;84.84
75972;BME280;64651;47.540;19.088;2022-11-04T02:05:10;100147.59;;;11.05;85.17
75972;BME280;64651;47.540;19.088;2022-11-04T02:10:12;100140.47;;;11.04;85.57
75972;BME280;64651;47.540;19.088;2022-11-04T02:21:10;100135.47;;;11.06;85.65
75972;BME280;64651;47.540;19.088;2022-11-04T02:32:05;100129.19;;;11.00;86.11
75972;BME280;64651;47.540;19.088;2022-11-04T02:42:26;100112.50;;;10.86;86.68
75972;BME280;64651;47.540;19.088;2022-11-04T02:47:30;100104.25;;;10.86;86.75
75972;BME280;64651;47.540;19.088;2022-11-04T02:57:40;100084.44;;;10.89;86.22
75972;BME280;64651;47.540;19.088;2022-11-04T03:07:53;100092.16;;;10.87;86.52
75972;BME280;64651;47.540;19.088;2022-11-04T03:13:02;100085.31;;;10.85;86.44
75972;BME280;64651;47.540;19.088;2022-11-04T03:23:20;100082.72;;;10.93;85.97
75972;BME280;64651;47.540;19.088;2022-11-04T03:33:49;100060.75;;;10.88;85.12
75972;BME280;64651;47.540;19.088;2022-11-04T03:38:51;100041.56;;;10.83;85.14
75972;BME280;64651;47.540;19.088;2022-11-04T03:43:54;100052.91;;;10.77;85.20
75972;BME280;64651;47.540;19.088;2022-11-04T03:48:57;100040.00;;;10.72;84.93
75972;BME280;64651;47.540;19.088;2022-11-04T03:54:00;100031.75;;;10.72;84.92
75972;BME280;64651;47.540;19.088;2022-11-04T04:04:57;100022.75;;;10.67;85.16
75972;BME280;64651;47.540;19.088;2022-11-04T04:15:54;100009.94;;;10.52;85.99
75972;BME280;64651;47.540;19.088;2022-11-04T04:21:02;99997.34;;;10.46;86.37
75972;BME280;64651;47.540;19.088;2022-11-04T04:26:06;99994.81;;;10.49;86.27
75972;BME280;64651;47.540;19.088;2022-11-04T04:31:29;99979.72;;;10.47;86.33
75972;BME280;64651;47.540;19.088;2022-11-04T04:42:05;99995.06;;;10.53;85.82
75972;BME280;64651;47.540;19.088;2022-11-04T04:47:29;99982.69;;;10.50;85.78
75972;BME280;64651;47.540;19.088;2022-11-04T04:52:38;99976.09;;;10.51;85.88
75972;BME280;64651;47.540;19.088;2022-11-04T04:57:41;99965.97;;;10.47;85.85
75972;BME280;64651;47.540;19.088;2022-11-04T05:02:44;99975.91;;;10.43;86.00
75972;BME280;64651;47.540;19.088;2022-11-04T05:07:46;99961.56;;;10.46;85.81
75972;BME280;64651;47.540;19.088;2022-11-04T05:12:48;99962.69;;;10.45;85.87
75972;BME280;64651;47.540;19.088;2022-11-04T05:18:09;99966.03;;;10.42;85.80
75972;BME280;64651;47.540;19.088;2022-11-04T05:23:12;99978.94;;;10.41;85.73
75972;BME280;64651;47.540;19.088;2022-11-04T05:28:15;99989.34;;;10.44;85.63
75972;BME280;64651;47.540;19.088;2022-11-04T05:33:17;99986.09;;;10.42;85.62
75972;BME280;64651;47.540;19.088;2022-11-04T05:38:19;99989.34;;;10.44;85.60
75972;BME280;64651;47.540;19.088;2022-11-04T05:43:21;99988.06;;;10.37;85.46
75972;BME280;64651;47.540;19.088;2022-11-04T05:48:23;99973.25;;;10.33;85.60
75972;BME280;64651;47.540;19.088;2022-11-04T05:53:25;99951.53;;;10.31;85.45
75972;BME280;64651;47.540;19.088;2022-11-04T05:58:33;99958.94;;;10.36;85.45
75972;BME280;64651;47.540;19.088;2022-11-04T06:03:35;99966.09;;;10.32;85.20
75972;BME280;64651;47.540;19.088;2022-11-04T06:08:37;99980.72;;;10.27;85.31
75972;BME280;64651;47.540;19.088;2022-11-04T06:13:45;99979.06;;;10.26;85.47
75972;BME280;64651;47.540;19.088;2022-11-04T06:18:48;99996.38;;;10.27;85.37
75972;BME280;64651;47.540;19.088;2022-11-04T06:23:51;99997.22;;;10.27;85.31
75972;BME280;64651;47.540;19.088;2022-11-04T06:28:53;99984.28;;;10.28;84.86
75972;BME280;64651;47.540;19.088;2022-11-04T06:33:56;99994.47;;;10.27;84.84
75972;BME280;64651;47.540;19.088;2022-11-04T06:38:58;99992.87;;;10.21;85.02
75972;BME280;64651;47.540;19.088;2022-11-04T06:44:05;100004.13;;;10.20;84.94
75972;BME280;64651;47.540;19.088;2022-11-04T06:49:15;100009.38;;;10.16;84.91
75972;BME280;64651;47.540;19.088;2022-11-04T06:54:21;99986.56;;;10.15;84.77
75972;BME280;64651;47.540;19.088;2022-11-04T06:59:23;100001.38;;;10.20;84.66
75972;BME280;64651;47.540;19.088;2022-11-04T07:04:25;99986.50;;;10.26;84.38
75972;BME280;64651;47.540;19.088;2022-11-04T07:09:27;99994.37;;;10.37;83.87
75972;BME280;64651;47.540;19.088;2022-11-04T07:14:29;99999.06;;;10.37;83.66
75972;BME280;64651;47.540;19.088;2022-11-04T07:19:32;99994.09;;;10.39;83.53
75972;BME280;64651;47.540;19.088;2022-11-04T07:24:34;99994.03;;;10.44;83.28
75972;BME280;64651;47.540;19.088;2022-11-04T07:29:36;99993.72;;;10.50;82.93
75972;BME280;64651;47.540;19.088;2022-11-04T07:34:38;100000.37;;;10.44;82.78
75972;BME280;64651;47.540;19.088;2022-11-04T07:39:40;100000.53;;;10.58;82.50
75972;BME280;64651;47.540;19.088;2022-11-04T07:44:43;99985.06;;;10.62;82.18
75972;BME280;64651;47.540;19.088;2022-11-04T07:49:46;99979.00;;;10.65;81.85
75972;BME280;64651;47.540;19.088;2022-11-04T07:54:48;99988.63;;;10.63;81.58
75972;BME280;64651;47.540;19.088;2022-11-04T07:59:51;99977.28;;;10.69;81.42
75972;BME280;64651;47.540;19.088;2022-11-04T08:04:53;99967.94;;;10.70;81.42
75972;BME280;64651;47.540;19.088;2022-11-04T08:09:55;99954.78;;;10.67;81.26
75972;BME280;64651;47.540;19.088;2022-11-04T08:14:58;99951.78;;;10.64;81.22
75972;BME280;64651;47.540;19.088;2022-11-04T08:20:00;99951.22;;;10.62;81.25
75972;BME280;64651;47.540;19.088;2022-11-04T08:25:02;99942.19;;;10.61;81.09
75972;BME280;64651;47.540;19.088;2022-11-04T08:30:05;99936.09;;;10.64;81.07
75972;BME280;64651;47.540;19.088;2022-11-04T08:35:07;99958.97;;;10.60;81.47
75972;BME280;64651;47.540;19.088;2022-11-04T08:40:10;99945.50;;;10.58;81.40
75972;BME280;64651;47.540;19.088;2022-11-04T08:45:12;99943.03;;;10.56;81.59
75972;BME280;64651;47.540;19.088;2022-11-04T08:50:14;99952.44;;;10.50;81.70
75972;BME280;64651;47.540;19.088;2022-11-04T08:55:16;99933.13;;;10.61;81.46
75972;BME280;64651;47.540;19.088;2022-11-04T09:00:18;99924.03;;;10.60;81.14
75972;BME280;64651;47.540;19.088;2022-11-04T09:05:21;99930.63;;;10.59;81.09
75972;BME280;64651;47.540;19.088;2022-11-04T09:10:24;99924.25;;;10.64;81.00
75972;BME280;64651;47.540;19.088;2022-11-04T09:15:26;99916.47;;;10.71;80.54
75972;BME280;64651;47.540;19.088;2022-11-04T09:20:28;99910.97;;;10.94;79.69
75972;BME280;64651;47.540;19.088;2022-11-04T09:25:30;99913.66;;;10.99;79.28
75972;BME280;64651;47.540;19.088;2022-11-04T09:30:34;99909.09;;;10.90;79.43
75972;BME280;64651;47.540;19.088;2022-11-04T09:35:36;99907.28;;;10.80;79.95
75972;BME280;64651;47.540;19.088;2022-11-04T09:40:38;99895.88;;;10.68;80.48
75972;BME280;64651;47.540;19.088;2022-11-04T09:45:41;99884.22;;;10.76;80.38
75972;BME280;64651;47.540;19.088;2022-11-04T09:50:50;99892.47;;;10.76;80.40
75972;BME280;64651;47.540;19.088;2022-11-04T09:55:56;99885.25;;;10.80;80.44
75972;BME280;64651;47.540;19.088;2022-11-04T10:01:08;99877.97;;;10.71;80.61
75972;BME280;64651;47.540;19.088;2022-11-04T10:06:31;99884.28;;;10.71;81.12
75972;BME280;64651;47.540;19.088;2022-11-04T10:22:02;99851.03;;;10.91;82.38
75972;BME280;64651;47.540;19.088;2022-11-04T10:27:15;99834.84;;;10.66;88.04
75972;BME280;64651;47.540;19.088;2022-11-04T10:32:25;99840.63;;;10.41;91.70
75972;BME280;64651;47.540;19.088;2022-11-04T10:37:30;99833.69;;;10.43;90.04
75972;BME280;64651;47.540;19.088;2022-11-04T10:42:32;99829.50;;;10.51;88.88
75972;BME280;64651;47.540;19.088;2022-11-04T10:53:19;99817.25;;;10.62;87.04
75972;BME280;64651;47.540;19.088;2022-11-04T10:58:28;99822.41;;;10.69;87.12
75972;BME280;64651;47.540;19.088;2022-11-04T11:03:33;99811.94;;;10.71;86.08
75972;BME280;64651;47.540;19.088;2022-11-04T11:08:35;99800.66;;;10.91;85.94
75972;BME280;64651;47.540;19.088;2022-11-04T11:13:44;99785.75;;;11.11;85.11
75972;BME280;64651;47.540;19.088;2022-11-04T11:24:19;99776.06;;;11.51;84.16
75972;BME280;64651;47.540;19.088;2022-11-04T11:29:28;99780.56;;;11.60;82.95
75972;BME280;64651;47.540;19.088;2022-11-04T11:34:36;99773.84;;;11.66;83.17
75972;BME280;64651;47.540;19.088;2022-11-04T11:39:42;99761.50;;;11.64;82.88
75972;BME280;64651;47.540;19.088;2022-11-04T12:00:30;99745.28;;;11.62;82.07
75972;BME280;64651;47.540;19.088;2022-11-04T12:06:05;99749.91;;;11.48;82.67
75972;BME280;64651;47.540;19.088;2022-11-04T12:26:55;99705.53;;;11.96;82.27
75972;BME280;64651;47.540;19.088;2022-11-04T12:43:09;99670.41;;;12.29;80.49
75972;BME280;64651;47.540;19.088;2022-11-04T12:54:27;99647.12;;;12.57;79.68
75972;BME280;64651;47.540;19.088;2022-11-04T13:15:55;99627.81;;;12.57;80.27
75972;BME280;64651;47.540;19.088;2022-11-04T13:26:05;99629.81;;;12.43;80.54
75972;BME280;64651;47.540;19.088;2022-11-04T13:36:32;99617.16;;;12.28;81.46
75972;BME280;64651;47.540;19.088;2022-11-04T13:46:55;99614.00;;;12.21;81.39
75972;BME280;64651;47.540;19.088;2022-11-04T13:57:13;99607.81;;;12.02;82.55
75972;BME280;64651;47.540;19.088;2022-11-04T14:18:42;99597.22;;;11.82;83.72
75972;BME280;64651;47.540;19.088;2022-11-04T14:23:55;99605.09;;;11.74;84.09
75972;BME280;64651;47.540;19.088;2022-11-04T14:29:05;99602.59;;;11.73;84.41
75972;BME280;64651;47.540;19.088;2022-11-04T14:34:24;99594.16;;;11.69;84.63
75972;BME280;64651;47.540;19.088;2022-11-04T14:39:38;99575.97;;;11.68;85.24
75972;BME280;64651;47.540;19.088;2022-11-04T15:05:59;99560.88;;;11.52;86.33
75972;BME280;64651;47.540;19.088;2022-11-04T15:16:23;99561.19;;;11.51;85.77
75972;BME280;64651;47.540;19.088;2022-11-04T15:21:26;99562.00;;;11.51;85.54
75972;BME280;64651;47.540;19.088;2022-11-04T15:26:31;99551.69;;;11.43;86.12
75972;BME280;64651;47.540;19.088;2022-11-04T15:31:34;99569.63;;;11.40;86.66
75972;BME280;64651;47.540;19.088;2022-11-04T15:36:38;99571.59;;;11.40;87.29
75972;BME280;64651;47.540;19.088;2022-11-04T15:41:43;99555.38;;;11.38;87.48
75972;BME280;64651;47.540;19.088;2022-11-04T15:52:24;99548.50;;;11.22;87.98
75972;BME280;64651;47.540;19.088;2022-11-04T15:57:33;99547.88;;;11.12;88.22
75972;BME280;64651;47.540;19.088;2022-11-04T16:02:50;99551.03;;;11.05;88.48
75972;BME280;64651;47.540;19.088;2022-11-04T16:07:55;99560.75;;;11.03;88.92
75972;BME280;64651;47.540;19.088;2022-11-04T16:18:38;99566.94;;;10.94;89.24
75972;BME280;64651;47.540;19.088;2022-11-04T16:23:46;99564.38;;;10.98;89.83
75972;BME280;64651;47.540;19.088;2022-11-04T16:28:52;99568.56;;;10.95;89.59
75972;BME280;64651;47.540;19.088;2022-11-04T16:33:55;99577.16;;;11.08;89.90
75972;BME280;64651;47.540;19.088;2022-11-04T16:38:58;99580.72;;;11.08;89.77
75972;BME280;64651;47.540;19.088;2022-11-04T16:44:05;99572.63;;;10.98;90.10
75972;BME280;64651;47.540;19.088;2022-11-04T16:49:17;99566.00;;;10.99;90.20
75972;BME280;64651;47.540;19.088;2022-11-04T16:54:21;99562.78;;;10.97;90.09
75972;BME280;64651;47.540;19.088;2022-11-04T16:59:23;99566.72;;;10.91;89.89
75972;BME280;64651;47.540;19.088;2022-11-04T17:04:25;99558.03;;;10.84;90.12
75972;BME280;64651;47.540;19.088;2022-11-04T17:09:27;99559.34;;;10.86;90.29
75972;BME280;64651;47.540;19.088;2022-11-04T17:14:31;99531.34;;;10.84;90.74
75972;BME280;64651;47.540;19.088;2022-11-04T17:19:33;99540.41;;;10.85;91.19
75972;BME280;64651;47.540;19.088;2022-11-04T17:24:35;99555.78;;;10.86;90.99
75972;BME280;64651;47.540;19.088;2022-11-04T17:29:41;99558.78;;;10.89;90.90
75972;BME280;64651;47.540;19.088;2022-11-04T17:34:43;99564.19;;;10.94;90.87
75972;BME280;64651;47.540;19.088;2022-11-04T17:39:45;99555.34;;;10.97;90.69
75972;BME280;64651;47.540;19.088;2022-11-04T17:44:47;99555.34;;;10.97;90.59
75972;BME280;64651;47.540;19.088;2022-11-04T17:49:49;99547.06;;;10.97;90.45
75972;BME280;64651;47.540;19.088;2022-11-04T17:54:51;99547.66;;;10.94;90.23
75972;BME280;64651;47.540;19.088;2022-11-04T17:59:53;99558.37;;;10.96;90.15
75972;BME280;64651;47.540;19.088;2022-11-04T18:04:55;99545.03;;;11.03;90.13
75972;BME280;64651;47.540;19.088;2022-11-04T18:09:57;99545.44;;;11.10;90.11
75972;BME280;64651;47.540;19.088;2022-11-04T18:15:00;99545.66;;;11.14;89.76
75972;BME280;64651;47.540;19.088;2022-11-04T18:20:02;99549.53;;;11.13;90.17
75972;BME280;64651;47.540;19.088;2022-11-04T18:25:09;99555.56;;;11.15;91.09
75972;BME280;64651;47.540;19.088;2022-11-04T18:30:12;99533.63;;;11.10;91.48
75972;BME280;64651;47.540;19.088;2022-11-04T18:35:17;99533.22;;;11.03;91.71
75972;BME280;64651;47.540;19.088;2022-11-04T18:40:19;99540.25;;;11.09;91.80
75972;BME280;64651;47.540;19.088;2022-11-04T18:45:22;99544.53;;;11.01;91.69
75972;BME280;64651;47.540;19.088;2022-11-04T18:50:24;99561.84;;;11.02;91.55
75972;BME280;64651;47.540;19.088;2022-11-04T18:55:26;99580.72;;;11.08;91.65
75972;BME280;64651;47.540;19.088;2022-11-04T19:00:28;99622.59;;;11.05;91.43
75972;BME280;64651;47.540;19.088;2022-11-04T19:05:32;99615.16;;;11.06;91.08
75972;BME280;64651;47.540;19.088;2022-11-04T19:10:38;99608.56;;;11.07;90.87
75972;BME280;64651;47.540;19.088;2022-11-04T19:16:09;99612.56;;;11.14;91.11
75972;BME280;64651;47.540;19.088;2022-11-04T19:21:12;99604.87;;;11.11;90.86
75972;BME280;64651;47.540;19.088;2022-11-04T19:26:17;99601.31;;;11.11;90.68
75972;BME280;64651;47.540;19.088;2022-11-04T19:31:22;99605.69;;;11.12;90.77
75972;BME280;64651;47.540;19.088;2022-11-04T19:36:25;99606.81;;;11.11;91.28
75972;BME280;64651;47.540;19.088;2022-11-04T19:41:27;99606.75;;;11.16;91.62
75972;BME280;64651;47.540;19.088;2022-11-04T19:46:48;99598.59;;;11.24;91.45
75972;BME280;64651;47.540;19.088;2022-11-04T19:51:50;99597.78;;;11.24;91.87
75972;BME280;64651;47.540;19.088;2022-11-04T19:56:53;99586.16;;;11.27;91.87
75972;BME280;64651;47.540;19.088;2022-11-04T20:01:55;99602.69;;;11.27;91.90
75972;BME280;64651;47.540;19.088;2022-11-04T20:06:57;99601.88;;;11.26;91.89
75972;BME280;64651;47.540;19.088;2022-11-04T20:11:59;99599.22;;;11.21;91.76
75972;BME280;64651;47.540;19.088;2022-11-04T20:17:20;99583.09;;;11.28;91.37
75972;BME280;64651;47.540;19.088;2022-11-04T20:22:22;99579.53;;;11.28;91.52
75972;BME280;64651;47.540;19.088;2022-11-04T20:27:24;99607.56;;;11.30;91.56
75972;BME280;64651;47.540;19.088;2022-11-04T20:32:26;99609.84;;;11.28;91.33
75972;BME280;64651;47.540;19.088;2022-11-04T20:37:29;99617.66;;;11.34;91.15
75972;BME280;64651;47.540;19.088;2022-11-04T20:42:32;99622.28;;;11.39;90.59
75972;BME280;64651;47.540;19.088;2022-11-04T20:47:34;99603.22;;;11.43;90.72
75972;BME280;64651;47.540;19.088;2022-11-04T20:52:37;99602.19;;;11.38;90.49
75972;BME280;64651;47.540;19.088;2022-11-04T20:57:39;99614.03;;;11.39;90.51
75972;BME280;64651;47.540;19.088;2022-11-04T21:02:41;99616.34;;;11.32;90.23
75972;BME280;64651;47.540;19.088;2022-11-04T21:07:43;99617.88;;;11.24;90.74
75972;BME280;64651;47.540;19.088;2022-11-04T21:12:46;99608.34;;;11.17;91.05
75972;BME280;64651;47.540;19.088;2022-11-04T21:17:48;99623.84;;;11.13;91.18
75972;BME280;64651;47.540;19.088;2022-11-04T21:22:50;99628.34;;;11.09;91.50
75972;BME280;64651;47.540;19.088;2022-11-04T21:27:52;99635.97;;;11.12;91.59
75972;BME280;64651;47.540;19.088;2022-11-04T21:32:54;99646.09;;;11.16;91.35
75972;BME280;64651;47.540;19.088;2022-11-04T21:37:56;99649.38;;;11.18;90.89
75972;BME280;64651;47.540;19.088;2022-11-04T21:42:58;99651.81;;;11.20;90.75
75972;BME280;64651;47.540;19.088;2022-11-04T21:48:00;99655.09;;;11.22;90.29
75972;BME280;64651;47.540;19.088;2022-11-04T21:53:03;99667.66;;;11.28;89.99
75972;BME280;64651;47.540;19.088;2022-11-04T21:58:05;99665.09;;;11.31;90.03
75972;BME280;64651;47.540;19.088;2022-11-04T22:03:08;99671.34;;;11.37;90.07
75972;BME280;64651;47.540;19.088;2022-11-04T22:08:11;99682.97;;;11.34;90.23
75972;BME280;64651;47.540;19.088;2022-11-04T22:13:21;99674.59;;;11.25;90.32
75972;BME280;64651;47.540;19.088;2022-11-04T22:18:28;99652.00;;;11.10;90.46
75972;BME280;64651;47.540;19.088;2022-11-04T22:23:32;99652.88;;;11.05;90.64
75972;BME280;64651;47.540;19.088;2022-11-04T22:28:35;99656.63;;;10.95;90.88
75972;BME280;64651;47.540;19.088;2022-11-04T22:33:37;99657.94;;;10.84;91.02
75972;BME280;64651;47.540;19.088;2022-11-04T22:38:40;99665.50;;;10.74;90.96
75972;BME280;64651;47.540;19.088;2022-11-04T22:43:43;99664.34;;;10.61;90.94
75972;BME280;64651;47.540;19.088;2022-11-04T22:48:45;99671.69;;;10.47;90.95
75972;BME280;64651;47.540;19.088;2022-11-04T22:53:51;99668.03;;;10.33;90.78
75972;BME280;64651;47.540;19.088;2022-11-04T22:58:59;99671.22;;;10.21;90.66
75972;BME280;64651;47.540;19.088;2022-11-04T23:04:02;99674.28;;;10.14;90.71
75972;BME280;64651;47.540;19.088;2022-11-04T23:09:04;99674.56;;;10.18;90.70
75972;BME280;64651;47.540;19.088;2022-11-04T23:14:10;99673.97;;;10.21;90.52
75972;BME280;64651;47.540;19.088;2022-11-04T23:19:31;99673.97;;;10.21;90.24
75972;BME280;64651;47.540;19.088;2022-11-04T23:24:33;99683.34;;;10.15;89.75
75972;BME280;64651;47.540;19.088;2022-11-04T23:29:54;99675.75;;;10.07;89.47
75972;BME280;64651;47.540;19.088;2022-11-04T23:35:16;99677.69;;;10.06;89.51
75972;BME280;64651;47.540;19.088;2022-11-04T23:40:37;99673.87;;;10.02;89.11
75972;BME280;64651;47.540;19.088;2022-11-04T23:45:40;99682.91;;;9.84;88.86
75972;BME280;64651;47.540;19.088;2022-11-04T23:51:01;99689.03;;;9.76;89.54
75972;BME280;64651;47.540;19.088;2022-11-04T23:56:22;99688.03;;;9.67;89.27
